Terminal Aerodrome Forecast
Issued by NWS

Home | Current Version | Previous Version | Text Only | Print | Product List | Glossary On
Versions: 1 2 3 4 5 6 7 8 9 10 11 12 13 14 15 16
151
FTUS43 KMQT 110530
TAFCMX
TAF
KCMX 110530Z 1106/1206 21004KT P6SM BKN040
     FM111500 13005KT P6SM VCSH OVC060
     FM111700 12006KT 4SM -SN OVC035
     FM111900 11007KT 1 1/2SM -SN OVC015
     FM112300 09008KT 1SM -SN VV009=

USA.gov is the U.S. government's official web portal to all federal, state and local government web resources and services.